createdAt,value
2024-03-15T00:01:24.186Z,10.27
2024-03-15T00:04:26.974Z,10.31
2024-03-15T00:07:30.456Z,10.39
2024-03-15T00:10:33.233Z,10.41
2024-03-15T00:13:36.046Z,10.42
2024-03-15T00:16:38.936Z,10.36
2024-03-15T00:19:42.350Z,10.37
2024-03-15T00:22:45.174Z,10.38
2024-03-15T00:25:48.011Z,10.32
2024-03-15T00:28:50.849Z,10.29
2024-03-15T00:31:53.650Z,10.26
2024-03-15T00:34:56.470Z,10.28
2024-03-15T00:37:59.305Z,10.20
2024-03-15T00:41:02.046Z,10.16
2024-03-15T00:44:06.097Z,10.11
2024-03-15T00:47:08.902Z,10.12
2024-03-15T00:50:12.014Z,10.08
2024-03-15T00:53:14.818Z,10.10
2024-03-15T00:56:17.575Z,10.15
2024-03-15T00:59:21.472Z,10.10
2024-03-15T01:02:25.788Z,10.12
2024-03-15T01:05:29.901Z,10.15
2024-03-15T01:08:32.888Z,10.14
2024-03-15T01:11:35.680Z,10.15
2024-03-15T01:14:42.559Z,10.13
2024-03-15T01:17:49.392Z,10.19
2024-03-15T01:20:56.516Z,10.32
2024-03-15T01:24:05.880Z,10.43
2024-03-15T01:27:18.100Z,10.51
2024-03-15T01:30:32.778Z,10.50
2024-03-15T01:33:38.187Z,10.46
2024-03-15T01:36:44.899Z,10.44
2024-03-15T01:39:50.586Z,10.38
2024-03-15T01:42:56.721Z,10.34
2024-03-15T01:46:02.733Z,10.27
2024-03-15T01:49:07.460Z,10.27
2024-03-15T01:52:10.709Z,10.32
2024-03-15T01:55:13.670Z,10.33
2024-03-15T01:58:16.593Z,10.36
2024-03-15T02:01:19.476Z,10.45
2024-03-15T02:04:22.476Z,10.53
2024-03-15T02:07:28.551Z,10.58
2024-03-15T02:10:31.677Z,10.60
2024-03-15T02:13:34.993Z,10.64
2024-03-15T02:16:38.502Z,10.71
2024-03-15T02:19:41.596Z,10.80
2024-03-15T02:22:45.441Z,10.85
2024-03-15T02:25:48.394Z,10.95
2024-03-15T02:28:51.176Z,10.98
2024-03-15T02:31:54.206Z,11.00
2024-03-15T02:34:57.255Z,11.00
2024-03-15T02:38:00.503Z,11.00
2024-03-15T02:41:06.990Z,11.05
2024-03-15T02:44:10.394Z,11.10
2024-03-15T02:47:13.271Z,11.08
2024-03-15T02:50:16.379Z,10.97
2024-03-15T02:53:20.236Z,10.86
2024-03-15T02:56:23.104Z,10.71
2024-03-15T02:59:26.905Z,10.54
2024-03-15T03:02:29.994Z,10.49
2024-03-15T03:05:32.915Z,10.39
2024-03-15T03:08:36.968Z,10.36
2024-03-15T03:11:39.887Z,10.32
2024-03-15T03:14:43.581Z,10.30
2024-03-15T03:17:47.218Z,10.26
2024-03-15T03:20:50.134Z,10.20
2024-03-15T03:23:58.275Z,10.13
2024-03-15T03:27:01.539Z,10.13
2024-03-15T03:30:04.946Z,10.11
2024-03-15T03:33:07.985Z,10.03
2024-03-15T03:36:11.030Z,10.09
2024-03-15T03:39:15.169Z,10.08
2024-03-15T03:42:21.352Z,10.05
2024-03-15T03:45:24.606Z,10.03
2024-03-15T03:48:28.081Z,9.99
2024-03-15T03:51:31.017Z,9.97
2024-03-15T03:54:33.953Z,9.96
2024-03-15T03:57:44.490Z,9.91
2024-03-15T04:00:48.958Z,9.99
2024-03-15T04:03:51.998Z,9.98
2024-03-15T04:06:55.150Z,9.98
2024-03-15T04:09:58.048Z,9.95
2024-03-15T04:13:01.025Z,10.07
2024-03-15T04:16:05.441Z,10.03
2024-03-15T04:19:09.902Z,9.99
2024-03-15T04:22:14.300Z,10.01
2024-03-15T04:25:18.148Z,10.00
2024-03-15T04:28:21.148Z,9.99
2024-03-15T04:31:24.009Z,10.01
2024-03-15T04:34:26.970Z,10.06
2024-03-15T04:37:29.993Z,10.02
2024-03-15T04:40:32.993Z,10.04
2024-03-15T04:43:36.078Z,10.07
2024-03-15T04:46:39.090Z,10.10
2024-03-15T04:49:41.933Z,10.08
2024-03-15T04:52:45.006Z,10.06
2024-03-15T04:55:48.165Z,10.08
2024-03-15T04:58:51.011Z,9.95
2024-03-15T05:01:53.833Z,9.94
2024-03-15T05:04:56.785Z,9.92
2024-03-15T05:07:59.697Z,9.88
2024-03-15T05:11:03.245Z,9.88
2024-03-15T05:14:06.279Z,9.86
2024-03-15T05:17:09.229Z,9.89
2024-03-15T05:20:14.602Z,9.82
2024-03-15T05:23:18.793Z,9.76
2024-03-15T05:26:21.979Z,9.79
2024-03-15T05:29:24.994Z,9.79
2024-03-15T05:32:29.205Z,9.79
2024-03-15T05:35:32.016Z,9.77
2024-03-15T05:38:35.205Z,9.74
2024-03-15T05:41:38.079Z,9.78
2024-03-15T05:44:40.948Z,9.80
2024-03-15T05:47:45.117Z,9.78
2024-03-15T05:50:48.228Z,9.65
2024-03-15T05:53:51.320Z,9.63
2024-03-15T05:56:54.556Z,9.69
2024-03-15T05:59:57.430Z,9.65
2024-03-15T06:03:04.089Z,9.64
2024-03-15T06:06:09.900Z,9.55
2024-03-15T06:09:14.353Z,9.58
2024-03-15T06:12:17.455Z,9.65
2024-03-15T06:15:23.006Z,9.64
2024-03-15T06:18:26.299Z,9.65
2024-03-15T06:21:29.331Z,9.63
2024-03-15T06:24:35.186Z,9.61
2024-03-15T06:27:40.519Z,9.57
2024-03-15T06:30:46.972Z,9.67
2024-03-15T06:33:51.247Z,9.71
2024-03-15T06:36:55.839Z,9.78
2024-03-15T06:40:05.867Z,9.87
2024-03-15T06:43:15.350Z,9.90
2024-03-15T06:46:25.312Z,9.96
2024-03-15T06:49:44.998Z,10.11
2024-03-15T06:52:48.859Z,10.21
2024-03-15T06:55:52.191Z,10.46
2024-03-15T06:58:55.142Z,10.81
2024-03-15T07:01:57.971Z,11.16
2024-03-15T07:05:00.857Z,11.53
2024-03-15T07:08:07.344Z,12.13
2024-03-15T07:11:10.256Z,13.12
2024-03-15T07:14:14.092Z,14.25
2024-03-15T07:17:17.219Z,15.36
2024-03-15T07:20:20.533Z,16.62
2024-03-15T07:23:23.758Z,18.01
2024-03-15T07:26:26.836Z,19.61
2024-03-15T07:29:29.968Z,20.12
2024-03-15T07:32:32.987Z,19.74
2024-03-15T07:35:35.919Z,18.72
2024-03-15T07:38:38.900Z,17.73
2024-03-15T07:41:41.914Z,17.09
2024-03-15T07:44:44.826Z,16.35
2024-03-15T07:47:47.749Z,15.88
2024-03-15T07:50:50.907Z,15.54
2024-03-15T07:53:54.015Z,15.37
2024-03-15T07:56:57.134Z,15.24
2024-03-15T08:00:00.875Z,15.04
2024-03-15T08:03:04.003Z,14.97
2024-03-15T08:06:07.843Z,14.97
2024-03-15T08:09:12.946Z,14.91
2024-03-15T08:12:16.585Z,14.87
2024-03-15T08:15:19.859Z,14.87
2024-03-15T08:18:23.568Z,14.83
2024-03-15T08:21:26.895Z,14.77
2024-03-15T08:24:30.068Z,14.78
2024-03-15T08:27:33.360Z,14.91
2024-03-15T08:30:39.052Z,14.89
2024-03-15T08:33:42.601Z,14.88
2024-03-15T08:36:45.732Z,15.03
2024-03-15T08:39:48.718Z,15.06
2024-03-15T08:42:51.890Z,15.09
2024-03-15T08:45:55.789Z,15.19
2024-03-15T08:48:58.826Z,15.18
2024-03-15T08:52:01.674Z,15.35
2024-03-15T08:55:04.634Z,15.38
2024-03-15T08:58:08.221Z,15.51
2024-03-15T09:01:12.282Z,15.60
2024-03-15T09:04:17.039Z,15.75
2024-03-15T09:07:23.089Z,15.90
2024-03-15T09:10:26.330Z,16.23
2024-03-15T09:13:30.729Z,16.35
2024-03-15T09:16:36.219Z,16.60
2024-03-15T09:19:39.041Z,16.84
2024-03-15T09:22:42.240Z,17.14
2024-03-15T09:25:45.736Z,17.46
2024-03-15T09:28:50.322Z,17.82
2024-03-15T09:32:07.397Z,18.10
2024-03-15T09:35:18.546Z,18.52
2024-03-15T09:38:23.430Z,18.74
2024-03-15T09:41:26.281Z,18.78
2024-03-15T09:44:29.326Z,18.71
2024-03-15T09:47:32.265Z,18.57
2024-03-15T09:50:35.143Z,18.42
2024-03-15T09:53:38.186Z,18.21
2024-03-15T09:56:41.084Z,18.04
2024-03-15T09:59:44.027Z,17.86
2024-03-15T10:02:46.925Z,17.54
2024-03-15T10:05:49.888Z,17.41
2024-03-15T10:08:52.867Z,17.17
2024-03-15T10:11:55.793Z,16.91
2024-03-15T10:14:59.212Z,16.71
2024-03-15T10:18:02.228Z,16.59
2024-03-15T10:21:06.076Z,16.49
2024-03-15T10:24:11.855Z,16.45
2024-03-15T10:27:15.974Z,16.30
2024-03-15T10:30:19.084Z,16.11
2024-03-15T10:33:22.530Z,16.04
2024-03-15T10:36:25.557Z,15.89
2024-03-15T10:39:28.605Z,15.84
2024-03-15T10:42:31.874Z,15.80
2024-03-15T10:45:34.841Z,15.86
2024-03-15T10:48:38.207Z,15.92
2024-03-15T10:51:41.145Z,16.00
2024-03-15T10:54:44.217Z,15.96
2024-03-15T10:57:47.176Z,15.97
2024-03-15T11:00:50.293Z,15.99
2024-03-15T11:03:53.718Z,15.92
2024-03-15T11:06:56.779Z,15.96
2024-03-15T11:10:00.813Z,16.21
2024-03-15T11:13:04.816Z,16.28
2024-03-15T11:16:21.321Z,16.41
2024-03-15T11:19:24.536Z,16.62
2024-03-15T11:22:27.639Z,16.81
2024-03-15T11:25:30.836Z,16.90
2024-03-15T11:28:33.813Z,17.06
2024-03-15T11:31:37.348Z,17.15
2024-03-15T11:34:41.130Z,17.25
2024-03-15T11:37:44.086Z,17.46
2024-03-15T11:40:47.046Z,17.70
2024-03-15T11:43:51.121Z,17.82
2024-03-15T11:46:54.038Z,17.98
2024-03-15T11:49:57.538Z,18.39
2024-03-15T11:53:00.613Z,18.39
2024-03-15T11:56:04.436Z,18.37
2024-03-15T11:59:07.864Z,18.61
2024-03-15T12:02:11.088Z,18.82
2024-03-15T12:05:14.192Z,19.04
2024-03-15T12:08:17.305Z,19.09
2024-03-15T12:11:20.883Z,19.03
2024-03-15T12:14:23.874Z,18.83
2024-03-15T12:17:27.618Z,18.83
2024-03-15T12:20:31.527Z,18.91
2024-03-15T12:23:37.731Z,18.68
2024-03-15T12:26:41.275Z,18.54
2024-03-15T12:29:44.520Z,18.59
2024-03-15T12:32:47.444Z,18.97
2024-03-15T12:35:51.531Z,19.00
2024-03-15T12:38:54.482Z,18.97
2024-03-15T12:41:57.370Z,18.76
2024-03-15T12:45:00.226Z,18.69
2024-03-15T12:48:03.281Z,18.89
2024-03-15T12:51:07.595Z,18.68
2024-03-15T12:54:10.710Z,18.57
2024-03-15T12:57:16.391Z,18.60
2024-03-15T13:00:20.988Z,19.06
2024-03-15T13:03:24.223Z,19.16
2024-03-15T13:06:27.239Z,19.06
2024-03-15T13:09:30.272Z,18.85
2024-03-15T13:12:33.374Z,18.62
2024-03-15T13:15:37.258Z,18.52
2024-03-15T13:18:41.119Z,18.53
2024-03-15T13:21:44.345Z,18.52
2024-03-15T13:24:47.377Z,18.39
2024-03-15T13:27:51.193Z,18.22
2024-03-15T13:30:54.113Z,18.08
2024-03-15T13:33:57.227Z,18.00
2024-03-15T13:37:00.194Z,17.79
2024-03-15T13:40:10.059Z,17.72
2024-03-15T13:43:13.860Z,17.63
2024-03-15T13:46:17.498Z,17.63
2024-03-15T13:49:20.584Z,17.70
2024-03-15T13:52:23.669Z,17.87
2024-03-15T13:55:26.597Z,17.87
2024-03-15T13:58:29.507Z,17.79
2024-03-15T14:01:32.503Z,17.61
2024-03-15T14:04:35.676Z,17.46
2024-03-15T14:07:38.788Z,17.28
2024-03-15T14:10:41.894Z,17.16
2024-03-15T14:13:44.934Z,17.13
2024-03-15T14:16:48.215Z,17.32
2024-03-15T14:19:51.154Z,17.35
2024-03-15T14:22:55.735Z,17.33
2024-03-15T14:25:58.783Z,17.25
2024-03-15T14:29:01.846Z,17.29
2024-03-15T14:32:06.185Z,17.17
2024-03-15T14:35:09.356Z,17.33
2024-03-15T14:38:12.531Z,17.62
2024-03-15T14:41:17.769Z,17.79
2024-03-15T14:44:20.780Z,17.97
2024-03-15T14:47:23.934Z,18.06
2024-03-15T14:50:29.264Z,18.07
2024-03-15T14:53:32.433Z,18.02
2024-03-15T14:56:35.373Z,18.00
2024-03-15T14:59:38.202Z,18.02
2024-03-15T15:02:41.324Z,17.97
2024-03-15T15:05:44.295Z,17.84
2024-03-15T15:08:47.293Z,17.76
2024-03-15T15:11:51.280Z,17.58
2024-03-15T15:14:54.457Z,17.38
2024-03-15T15:17:57.556Z,17.15
2024-03-15T15:21:00.585Z,17.10
2024-03-15T15:24:03.433Z,16.91
2024-03-15T15:27:06.453Z,16.81
2024-03-15T15:30:10.405Z,16.70
2024-03-15T15:33:13.492Z,16.65
2024-03-15T15:36:16.319Z,16.56
2024-03-15T15:39:19.453Z,16.44
2024-03-15T15:42:22.556Z,16.43
2024-03-15T15:45:27.984Z,16.40
2024-03-15T15:48:31.966Z,16.49
2024-03-15T15:51:37.021Z,16.50
2024-03-15T15:54:40.481Z,16.47
2024-03-15T15:57:43.604Z,16.43
2024-03-15T16:00:47.542Z,16.37
2024-03-15T16:03:50.653Z,16.25
2024-03-15T16:06:56.994Z,16.25
2024-03-15T16:09:59.989Z,16.20
2024-03-15T16:13:03.193Z,16.12
2024-03-15T16:16:06.316Z,16.07
2024-03-15T16:19:11.665Z,16.06
2024-03-15T16:22:14.702Z,16.05
2024-03-15T16:25:17.568Z,16.07
2024-03-15T16:28:20.437Z,15.98
2024-03-15T16:31:23.498Z,15.94
2024-03-15T16:34:26.398Z,15.98
2024-03-15T16:37:29.319Z,15.85
2024-03-15T16:40:32.229Z,15.84
2024-03-15T16:43:35.087Z,15.81
2024-03-15T16:46:38.099Z,15.79
2024-03-15T16:49:40.941Z,15.79
2024-03-15T16:52:43.801Z,15.82
2024-03-15T16:55:50.552Z,15.87
2024-03-15T16:58:55.286Z,15.82
2024-03-15T17:01:58.185Z,15.83
2024-03-15T17:05:01.063Z,15.83
2024-03-15T17:08:03.973Z,15.80
2024-03-15T17:11:08.113Z,15.84
2024-03-15T17:14:11.324Z,15.79
2024-03-15T17:17:15.659Z,15.74
2024-03-15T17:20:19.895Z,15.89
2024-03-15T17:23:22.848Z,15.80
2024-03-15T17:26:25.678Z,15.73
2024-03-15T17:29:28.530Z,15.73
2024-03-15T17:32:31.423Z,15.76
2024-03-15T17:35:34.437Z,15.73
2024-03-15T17:38:37.338Z,15.67
2024-03-15T17:41:40.432Z,15.58
2024-03-15T17:44:43.301Z,15.50
2024-03-15T17:47:46.201Z,15.44
2024-03-15T17:50:49.193Z,15.47
2024-03-15T17:53:52.016Z,15.44
2024-03-15T17:56:55.149Z,15.33
2024-03-15T17:59:58.143Z,15.26
2024-03-15T18:03:04.324Z,15.27
2024-03-15T18:06:07.896Z,15.22
2024-03-15T18:09:10.741Z,15.19
2024-03-15T18:12:13.740Z,15.16
2024-03-15T18:15:17.394Z,15.11
2024-03-15T18:18:20.637Z,15.06
2024-03-15T18:21:24.138Z,15.00
2024-03-15T18:24:29.080Z,14.95
2024-03-15T18:27:32.216Z,14.97
2024-03-15T18:30:35.159Z,14.98
2024-03-15T18:33:38.242Z,14.94
2024-03-15T18:36:41.148Z,14.95
2024-03-15T18:39:44.708Z,14.97
2024-03-15T18:42:47.604Z,14.97
2024-03-15T18:45:50.639Z,14.98
2024-03-15T18:48:53.618Z,14.87
2024-03-15T18:51:57.373Z,14.80
2024-03-15T18:55:00.288Z,14.68
2024-03-15T18:58:05.574Z,14.66
2024-03-15T19:01:11.835Z,14.53
2024-03-15T19:04:14.777Z,14.45
2024-03-15T19:07:17.589Z,14.37
2024-03-15T19:10:21.637Z,14.24
2024-03-15T19:13:24.494Z,14.22
2024-03-15T19:16:27.357Z,14.18
2024-03-15T19:19:30.259Z,14.21
2024-03-15T19:22:33.206Z,14.19
2024-03-15T19:25:36.077Z,14.15
2024-03-15T19:28:38.913Z,14.13
2024-03-15T19:31:41.738Z,14.06
2024-03-15T19:34:44.586Z,13.97
2024-03-15T19:37:48.023Z,13.88
2024-03-15T19:40:51.046Z,13.85
2024-03-15T19:43:53.894Z,13.83
2024-03-15T19:46:56.818Z,13.97
2024-03-15T19:49:59.705Z,14.08
2024-03-15T19:53:02.580Z,14.17
2024-03-15T19:56:05.953Z,14.18
2024-03-15T19:59:14.512Z,14.28
2024-03-15T20:02:19.360Z,14.36
2024-03-15T20:05:22.383Z,14.42
2024-03-15T20:08:25.239Z,14.42
2024-03-15T20:11:28.231Z,14.42
2024-03-15T20:14:31.387Z,14.34
2024-03-15T20:17:34.580Z,14.35
2024-03-15T20:20:37.414Z,14.46
2024-03-15T20:23:40.253Z,14.38
2024-03-15T20:26:46.424Z,14.25
2024-03-15T20:29:49.562Z,14.26
2024-03-15T20:32:52.645Z,14.14
2024-03-15T20:35:56.996Z,14.07
2024-03-15T20:39:01.238Z,14.04
2024-03-15T20:42:04.203Z,14.00
2024-03-15T20:45:07.611Z,14.02
2024-03-15T20:48:10.481Z,13.94
2024-03-15T20:51:14.894Z,13.90
2024-03-15T20:54:17.939Z,13.92
2024-03-15T20:57:20.820Z,13.96
2024-03-15T21:00:24.278Z,14.01
2024-03-15T21:03:27.418Z,14.05
2024-03-15T21:06:31.563Z,14.08
2024-03-15T21:09:34.651Z,13.80
2024-03-15T21:12:38.726Z,13.41
2024-03-15T21:15:41.917Z,13.18
2024-03-15T21:18:44.965Z,13.06
2024-03-15T21:21:50.054Z,12.89
2024-03-15T21:24:53.203Z,12.71
2024-03-15T21:27:58.083Z,12.61
2024-03-15T21:31:01.714Z,12.55
2024-03-15T21:34:04.811Z,12.57
2024-03-15T21:37:08.112Z,12.66
2024-03-15T21:40:15.766Z,12.50
2024-03-15T21:43:18.665Z,12.45
2024-03-15T21:46:25.563Z,12.35
2024-03-15T21:49:28.473Z,12.43
2024-03-15T21:52:31.365Z,12.39
2024-03-15T21:55:34.253Z,12.40
2024-03-15T21:58:37.222Z,12.49
2024-03-15T22:01:40.876Z,12.68
2024-03-15T22:04:45.457Z,12.72
2024-03-15T22:07:48.571Z,12.70
2024-03-15T22:10:54.541Z,12.68
2024-03-15T22:13:57.644Z,12.76
2024-03-15T22:17:00.777Z,12.79
2024-03-15T22:20:06.966Z,12.69
2024-03-15T22:23:09.842Z,12.70
2024-03-15T22:26:12.850Z,12.65
2024-03-15T22:29:15.758Z,12.70
2024-03-15T22:32:19.264Z,12.64
2024-03-15T22:35:22.284Z,12.64
2024-03-15T22:38:25.641Z,12.61
2024-03-15T22:41:28.691Z,12.60
2024-03-15T22:44:31.601Z,12.59
2024-03-15T22:47:34.648Z,12.46
2024-03-15T22:50:37.530Z,12.40
2024-03-15T22:53:40.652Z,12.38
2024-03-15T22:56:43.785Z,12.22
2024-03-15T22:59:48.299Z,12.29
2024-03-15T23:02:54.268Z,12.37
2024-03-15T23:05:57.294Z,12.32
2024-03-15T23:09:00.446Z,12.28
2024-03-15T23:12:03.334Z,12.27
2024-03-15T23:15:10.019Z,12.21
2024-03-15T23:18:13.134Z,12.15
2024-03-15T23:21:17.562Z,12.20
2024-03-15T23:24:20.671Z,12.10
2024-03-15T23:27:25.286Z,11.99
2024-03-15T23:30:28.545Z,11.98
2024-03-15T23:33:31.693Z,11.99
2024-03-15T23:36:34.747Z,11.99
2024-03-15T23:39:37.896Z,11.96
2024-03-15T23:42:41.182Z,11.81
2024-03-15T23:45:44.050Z,11.79
2024-03-15T23:48:47.040Z,11.91
2024-03-15T23:51:51.133Z,12.09
2024-03-15T23:54:54.740Z,12.16
2024-03-15T23:57:57.841Z,12.10
